sensor_id;sensor_type;location;lat;lon;timestamp;pressure;altitude;pressure_sealevel;temperature
74485;BMP280;62942;52.462;10.846;2023-04-08T00:00:22;101430;;;
74485;BMP280;62942;52.462;10.846;2023-04-08T00:01:32;101430;;;
74485;BMP280;62942;52.462;10.846;2023-04-08T00:02:42;101420;;;
74485;BMP280;62942;52.462;10.846;2023-04-08T00:03:42;101440;;;
74485;BMP280;62942;52.462;10.846;2023-04-08T00:04:52;101440;;;
74485;BMP280;62942;52.462;10.846;2023-04-08T00:05:52;101440;;;
74485;BMP280;62942;52.462;10.846;2023-04-08T00:06:52;101440;;;
74485;BMP280;62942;52.462;10.846;2023-04-08T00:08:02;101440;;;
74485;BMP280;62942;52.462;10.846;2023-04-08T00:09:02;101440;;;
74485;BMP280;62942;52.462;10.846;2023-04-08T00:10:02;101440;;;
74485;BMP280;62942;52.462;10.846;2023-04-08T00:11:12;101440;;;
74485;BMP280;62942;52.462;10.846;2023-04-08T00:12:12;101450;;;
74485;BMP280;62942;52.462;10.846;2023-04-08T00:13:22;101450;;;
74485;BMP280;62942;52.462;10.846;2023-04-08T00:14:22;101450;;;
74485;BMP280;62942;52.462;10.846;2023-04-08T00:15:32;101450;;;
74485;BMP280;62942;52.462;10.846;2023-04-08T00:16:32;101450;;;
74485;BMP280;62942;52.462;10.846;2023-04-08T00:17:42;101450;;;
74485;BMP280;62942;52.462;10.846;2023-04-08T00:18:42;101450;;;
74485;BMP280;62942;52.462;10.846;2023-04-08T00:19:52;101450;;;
74485;BMP280;62942;52.462;10.846;2023-04-08T00:21:02;101440;;;
74485;BMP280;62942;52.462;10.846;2023-04-08T00:22:12;101440;;;
74485;BMP280;62942;52.462;10.846;2023-04-08T00:23:12;101440;;;
74485;BMP280;62942;52.462;10.846;2023-04-08T00:24:22;101440;;;
74485;BMP280;62942;52.462;10.846;2023-04-08T00:25:32;101440;;;
74485;BMP280;62942;52.462;10.846;2023-04-08T00:26:32;101430;;;
74485;BMP280;62942;52.462;10.846;2023-04-08T00:27:32;101440;;;
74485;BMP280;62942;52.462;10.846;2023-04-08T00:28:42;101440;;;
74485;BMP280;62942;52.462;10.846;2023-04-08T00:29:52;101440;;;
74485;BMP280;62942;52.462;10.846;2023-04-08T00:31:02;101430;;;
74485;BMP280;62942;52.462;10.846;2023-04-08T00:32:02;101430;;;
74485;BMP280;62942;52.462;10.846;2023-04-08T00:33:12;101430;;;
74485;BMP280;62942;52.462;10.846;2023-04-08T00:34:22;101430;;;
74485;BMP280;62942;52.462;10.846;2023-04-08T00:35:32;101430;;;
74485;BMP280;62942;52.462;10.846;2023-04-08T00:36:42;101420;;;
74485;BMP280;62942;52.462;10.846;2023-04-08T00:37:42;101420;;;
74485;BMP280;62942;52.462;10.846;2023-04-08T00:38:52;101420;;;
74485;BMP280;62942;52.462;10.846;2023-04-08T00:40:02;101410;;;
74485;BMP280;62942;52.462;10.846;2023-04-08T00:41:12;101400;;;
74485;BMP280;62942;52.462;10.846;2023-04-08T00:42:12;101390;;;
74485;BMP280;62942;52.462;10.846;2023-04-08T00:43:22;101410;;;
74485;BMP280;62942;52.462;10.846;2023-04-08T00:44:32;101410;;;
74485;BMP280;62942;52.462;10.846;2023-04-08T00:45:42;101410;;;
74485;BMP280;62942;52.462;10.846;2023-04-08T00:46:52;101400;;;
74485;BMP280;62942;52.462;10.846;2023-04-08T00:47:52;101400;;;
74485;BMP280;62942;52.462;10.846;2023-04-08T00:49:02;101410;;;
74485;BMP280;62942;52.462;10.846;2023-04-08T00:50:02;101410;;;
74485;BMP280;62942;52.462;10.846;2023-04-08T00:51:12;101410;;;
74485;BMP280;62942;52.462;10.846;2023-04-08T00:52:12;101410;;;
74485;BMP280;62942;52.462;10.846;2023-04-08T00:53:22;101410;;;
74485;BMP280;62942;52.462;10.846;2023-04-08T00:54:32;101410;;;
74485;BMP280;62942;52.462;10.846;2023-04-08T00:55:42;101420;;;
74485;BMP280;62942;52.462;10.846;2023-04-08T00:56:42;101430;;;
74485;BMP280;62942;52.462;10.846;2023-04-08T00:57:52;101430;;;
74485;BMP280;62942;52.462;10.846;2023-04-08T00:59:02;101430;;;
74485;BMP280;62942;52.462;10.846;2023-04-08T01:00:02;101430;;;
74485;BMP280;62942;52.462;10.846;2023-04-08T01:01:03;101430;;;
74485;BMP280;62942;52.462;10.846;2023-04-08T01:02:13;101430;;;
74485;BMP280;62942;52.462;10.846;2023-04-08T01:03:13;101430;;;
74485;BMP280;62942;52.462;10.846;2023-04-08T01:04:25;101440;;;
74485;BMP280;62942;52.462;10.846;2023-04-08T01:05:24;101430;;;
74485;BMP280;62942;52.462;10.846;2023-04-08T01:06:24;101440;;;
74485;BMP280;62942;52.462;10.846;2023-04-08T01:07:32;101440;;;
74485;BMP280;62942;52.462;10.846;2023-04-08T01:08:32;101440;;;
74485;BMP280;62942;52.462;10.846;2023-04-08T01:09:43;101430;;;
74485;BMP280;62942;52.462;10.846;2023-04-08T01:10:42;101430;;;
74485;BMP280;62942;52.462;10.846;2023-04-08T01:11:52;101440;;;
74485;BMP280;62942;52.462;10.846;2023-04-08T01:13:03;101430;;;
74485;BMP280;62942;52.462;10.846;2023-04-08T01:14:14;101430;;;
74485;BMP280;62942;52.462;10.846;2023-04-08T01:15:22;101430;;;
74485;BMP280;62942;52.462;10.846;2023-04-08T01:16:22;101430;;;
74485;BMP280;62942;52.462;10.846;2023-04-08T01:17:32;101430;;;
74485;BMP280;62942;52.462;10.846;2023-04-08T01:18:32;101430;;;
74485;BMP280;62942;52.462;10.846;2023-04-08T01:19:42;101430;;;
74485;BMP280;62942;52.462;10.846;2023-04-08T01:20:52;101430;;;
74485;BMP280;62942;52.462;10.846;2023-04-08T01:21:52;101430;;;
74485;BMP280;62942;52.462;10.846;2023-04-08T01:23:03;101430;;;
74485;BMP280;62942;52.462;10.846;2023-04-08T01:24:12;101430;;;
74485;BMP280;62942;52.462;10.846;2023-04-08T01:25:14;101430;;;
74485;BMP280;62942;52.462;10.846;2023-04-08T01:26:23;101430;;;
74485;BMP280;62942;52.462;10.846;2023-04-08T01:27:22;101420;;;
74485;BMP280;62942;52.462;10.846;2023-04-08T01:28:32;101430;;;
74485;BMP280;62942;52.462;10.846;2023-04-08T01:29:33;101420;;;
74485;BMP280;62942;52.462;10.846;2023-04-08T01:30:32;101430;;;
74485;BMP280;62942;52.462;10.846;2023-04-08T01:31:42;101420;;;
74485;BMP280;62942;52.462;10.846;2023-04-08T01:32:42;101420;;;
74485;BMP280;62942;52.462;10.846;2023-04-08T01:33:42;101420;;;
74485;BMP280;62942;52.462;10.846;2023-04-08T01:34:52;101420;;;
74485;BMP280;62942;52.462;10.846;2023-04-08T01:35:52;101430;;;
74485;BMP280;62942;52.462;10.846;2023-04-08T01:37:02;101420;;;
74485;BMP280;62942;52.462;10.846;2023-04-08T01:38:13;101420;;;
74485;BMP280;62942;52.462;10.846;2023-04-08T01:39:12;101430;;;
74485;BMP280;62942;52.462;10.846;2023-04-08T01:40:12;101420;;;
74485;BMP280;62942;52.462;10.846;2023-04-08T01:41:22;101420;;;
74485;BMP280;62942;52.462;10.846;2023-04-08T01:42:22;101420;;;
74485;BMP280;62942;52.462;10.846;2023-04-08T01:43:32;101420;;;
74485;BMP280;62942;52.462;10.846;2023-04-08T01:44:32;101420;;;
74485;BMP280;62942;52.462;10.846;2023-04-08T01:45:42;101420;;;
74485;BMP280;62942;52.462;10.846;2023-04-08T01:46:42;101420;;;
74485;BMP280;62942;52.462;10.846;2023-04-08T01:47:42;101420;;;
74485;BMP280;62942;52.462;10.846;2023-04-08T01:48:52;101420;;;
74485;BMP280;62942;52.462;10.846;2023-04-08T01:49:52;101430;;;
74485;BMP280;62942;52.462;10.846;2023-04-08T01:50:52;101420;;;
74485;BMP280;62942;52.462;10.846;2023-04-08T01:52:02;101430;;;
74485;BMP280;62942;52.462;10.846;2023-04-08T01:53:12;101420;;;
74485;BMP280;62942;52.462;10.846;2023-04-08T01:54:12;101420;;;
74485;BMP280;62942;52.462;10.846;2023-04-08T01:55:22;101430;;;
74485;BMP280;62942;52.462;10.846;2023-04-08T01:56:22;101420;;;
74485;BMP280;62942;52.462;10.846;2023-04-08T01:57:33;101420;;;
74485;BMP280;62942;52.462;10.846;2023-04-08T01:58:36;101420;;;
74485;BMP280;62942;52.462;10.846;2023-04-08T01:59:42;101420;;;
74485;BMP280;62942;52.462;10.846;2023-04-08T02:00:42;101420;;;
74485;BMP280;62942;52.462;10.846;2023-04-08T02:01:52;101420;;;
74485;BMP280;62942;52.462;10.846;2023-04-08T02:02:52;101420;;;
74485;BMP280;62942;52.462;10.846;2023-04-08T02:04:02;101420;;;
74485;BMP280;62942;52.462;10.846;2023-04-08T02:05:12;101420;;;
74485;BMP280;62942;52.462;10.846;2023-04-08T02:06:22;101420;;;
74485;BMP280;62942;52.462;10.846;2023-04-08T02:07:32;101420;;;
74485;BMP280;62942;52.462;10.846;2023-04-08T02:08:32;101420;;;
74485;BMP280;62942;52.462;10.846;2023-04-08T02:09:32;101420;;;
74485;BMP280;62942;52.462;10.846;2023-04-08T02:10:32;101420;;;
74485;BMP280;62942;52.462;10.846;2023-04-08T02:11:42;101420;;;
74485;BMP280;62942;52.462;10.846;2023-04-08T02:12:42;101420;;;
74485;BMP280;62942;52.462;10.846;2023-04-08T02:13:42;101430;;;
74485;BMP280;62942;52.462;10.846;2023-04-08T02:14:42;101430;;;
74485;BMP280;62942;52.462;10.846;2023-04-08T02:15:54;101420;;;
74485;BMP280;62942;52.462;10.846;2023-04-08T02:17:04;101410;;;
74485;BMP280;62942;52.462;10.846;2023-04-08T02:18:04;101430;;;
74485;BMP280;62942;52.462;10.846;2023-04-08T02:19:04;101420;;;
74485;BMP280;62942;52.462;10.846;2023-04-08T02:20:03;101420;;;
74485;BMP280;62942;52.462;10.846;2023-04-08T02:21:13;101420;;;
74485;BMP280;62942;52.462;10.846;2023-04-08T02:22:16;101430;;;
74485;BMP280;62942;52.462;10.846;2023-04-08T02:23:13;101430;;;
74485;BMP280;62942;52.462;10.846;2023-04-08T02:24:22;101440;;;
74485;BMP280;62942;52.462;10.846;2023-04-08T02:25:23;101430;;;
74485;BMP280;62942;52.462;10.846;2023-04-08T02:26:22;101430;;;
74485;BMP280;62942;52.462;10.846;2023-04-08T02:27:32;101430;;;
74485;BMP280;62942;52.462;10.846;2023-04-08T02:28:32;101440;;;
74485;BMP280;62942;52.462;10.846;2023-04-08T02:29:42;101440;;;
74485;BMP280;62942;52.462;10.846;2023-04-08T02:30:43;101440;;;
74485;BMP280;62942;52.462;10.846;2023-04-08T02:31:52;101440;;;
74485;BMP280;62942;52.462;10.846;2023-04-08T02:32:52;101440;;;
74485;BMP280;62942;52.462;10.846;2023-04-08T02:33:52;101430;;;
74485;BMP280;62942;52.462;10.846;2023-04-08T02:35:02;101440;;;
74485;BMP280;62942;52.462;10.846;2023-04-08T02:36:02;101440;;;
74485;BMP280;62942;52.462;10.846;2023-04-08T02:37:12;101440;;;
74485;BMP280;62942;52.462;10.846;2023-04-08T02:38:22;101450;;;
74485;BMP280;62942;52.462;10.846;2023-04-08T02:39:29;101450;;;
74485;BMP280;62942;52.462;10.846;2023-04-08T02:40:32;101450;;;
74485;BMP280;62942;52.462;10.846;2023-04-08T02:41:42;101450;;;
74485;BMP280;62942;52.462;10.846;2023-04-08T02:42:52;101450;;;
74485;BMP280;62942;52.462;10.846;2023-04-08T02:43:52;101450;;;
74485;BMP280;62942;52.462;10.846;2023-04-08T02:45:02;101450;;;
74485;BMP280;62942;52.462;10.846;2023-04-08T02:46:12;101450;;;
74485;BMP280;62942;52.462;10.846;2023-04-08T02:47:12;101450;;;
74485;BMP280;62942;52.462;10.846;2023-04-08T02:48:22;101450;;;
74485;BMP280;62942;52.462;10.846;2023-04-08T02:49:22;101450;;;
74485;BMP280;62942;52.462;10.846;2023-04-08T02:50:32;101460;;;
74485;BMP280;62942;52.462;10.846;2023-04-08T02:51:32;101450;;;
74485;BMP280;62942;52.462;10.846;2023-04-08T02:52:32;101450;;;
74485;BMP280;62942;52.462;10.846;2023-04-08T02:53:42;101450;;;
74485;BMP280;62942;52.462;10.846;2023-04-08T02:54:42;101460;;;
74485;BMP280;62942;52.462;10.846;2023-04-08T02:55:52;101460;;;
74485;BMP280;62942;52.462;10.846;2023-04-08T02:56:52;101450;;;
74485;BMP280;62942;52.462;10.846;2023-04-08T02:58:02;101450;;;
74485;BMP280;62942;52.462;10.846;2023-04-08T02:59:12;101450;;;
74485;BMP280;62942;52.462;10.846;2023-04-08T03:00:22;101460;;;
74485;BMP280;62942;52.462;10.846;2023-04-08T03:01:22;101450;;;
74485;BMP280;62942;52.462;10.846;2023-04-08T03:02:32;101460;;;
74485;BMP280;62942;52.462;10.846;2023-04-08T03:03:42;101460;;;
74485;BMP280;62942;52.462;10.846;2023-04-08T03:04:52;101460;;;
74485;BMP280;62942;52.462;10.846;2023-04-08T03:05:52;101450;;;
74485;BMP280;62942;52.462;10.846;2023-04-08T03:07:02;101450;;;
74485;BMP280;62942;52.462;10.846;2023-04-08T03:08:12;101460;;;
74485;BMP280;62942;52.462;10.846;2023-04-08T03:09:22;101460;;;
74485;BMP280;62942;52.462;10.846;2023-04-08T03:10:22;101460;;;
74485;BMP280;62942;52.462;10.846;2023-04-08T03:11:32;101450;;;
74485;BMP280;62942;52.462;10.846;2023-04-08T03:12:32;101460;;;
74485;BMP280;62942;52.462;10.846;2023-04-08T03:13:32;101450;;;
74485;BMP280;62942;52.462;10.846;2023-04-08T03:14:42;101460;;;
74485;BMP280;62942;52.462;10.846;2023-04-08T03:15:42;101460;;;
74485;BMP280;62942;52.462;10.846;2023-04-08T03:16:52;101460;;;
74485;BMP280;62942;52.462;10.846;2023-04-08T03:17:52;101460;;;
74485;BMP280;62942;52.462;10.846;2023-04-08T03:19:02;101460;;;
74485;BMP280;62942;52.462;10.846;2023-04-08T03:20:02;101460;;;
74485;BMP280;62942;52.462;10.846;2023-04-08T03:21:12;101470;;;
74485;BMP280;62942;52.462;10.846;2023-04-08T03:22:22;101460;;;
74485;BMP280;62942;52.462;10.846;2023-04-08T03:23:22;101460;;;
74485;BMP280;62942;52.462;10.846;2023-04-08T03:24:22;101460;;;
74485;BMP280;62942;52.462;10.846;2023-04-08T03:25:32;101460;;;
74485;BMP280;62942;52.462;10.846;2023-04-08T03:26:32;101450;;;
74485;BMP280;62942;52.462;10.846;2023-04-08T03:27:32;101460;;;
74485;BMP280;62942;52.462;10.846;2023-04-08T03:28:32;101460;;;
74485;BMP280;62942;52.462;10.846;2023-04-08T03:29:42;101450;;;
74485;BMP280;62942;52.462;10.846;2023-04-08T03:30:42;101450;;;
74485;BMP280;62942;52.462;10.846;2023-04-08T03:31:52;101450;;;
74485;BMP280;62942;52.462;10.846;2023-04-08T03:32:52;101450;;;
74485;BMP280;62942;52.462;10.846;2023-04-08T03:33:52;101450;;;
74485;BMP280;62942;52.462;10.846;2023-04-08T03:34:52;101450;;;
74485;BMP280;62942;52.462;10.846;2023-04-08T03:36:02;101450;;;
74485;BMP280;62942;52.462;10.846;2023-04-08T03:37:02;101450;;;
74485;BMP280;62942;52.462;10.846;2023-04-08T03:38:02;101450;;;
74485;BMP280;62942;52.462;10.846;2023-04-08T03:39:02;101470;;;
74485;BMP280;62942;52.462;10.846;2023-04-08T03:40:12;101460;;;
74485;BMP280;62942;52.462;10.846;2023-04-08T03:41:22;101460;;;
74485;BMP280;62942;52.462;10.846;2023-04-08T03:42:22;101470;;;
74485;BMP280;62942;52.462;10.846;2023-04-08T03:43:32;101470;;;
74485;BMP280;62942;52.462;10.846;2023-04-08T03:44:32;101470;;;
74485;BMP280;62942;52.462;10.846;2023-04-08T03:45:42;101460;;;
74485;BMP280;62942;52.462;10.846;2023-04-08T03:46:42;101470;;;
74485;BMP280;62942;52.462;10.846;2023-04-08T03:47:52;101470;;;
74485;BMP280;62942;52.462;10.846;2023-04-08T03:49:02;101470;;;
74485;BMP280;62942;52.462;10.846;2023-04-08T03:50:12;101470;;;
74485;BMP280;62942;52.462;10.846;2023-04-08T03:51:12;101470;;;
74485;BMP280;62942;52.462;10.846;2023-04-08T03:52:12;101470;;;
74485;BMP280;62942;52.462;10.846;2023-04-08T03:53:12;101460;;;
74485;BMP280;62942;52.462;10.846;2023-04-08T03:54:22;101460;;;
74485;BMP280;62942;52.462;10.846;2023-04-08T03:55:22;101460;;;
74485;BMP280;62942;52.462;10.846;2023-04-08T03:56:22;101460;;;
74485;BMP280;62942;52.462;10.846;2023-04-08T03:57:32;101470;;;
74485;BMP280;62942;52.462;10.846;2023-04-08T03:58:32;101470;;;
74485;BMP280;62942;52.462;10.846;2023-04-08T03:59:42;101470;;;
74485;BMP280;62942;52.462;10.846;2023-04-08T04:00:52;101470;;;
74485;BMP280;62942;52.462;10.846;2023-04-08T04:01:52;101470;;;
74485;BMP280;62942;52.462;10.846;2023-04-08T04:02:52;101470;;;
74485;BMP280;62942;52.462;10.846;2023-04-08T04:04:02;101470;;;
74485;BMP280;62942;52.462;10.846;2023-04-08T04:05:02;101480;;;
74485;BMP280;62942;52.462;10.846;2023-04-08T04:06:12;101470;;;
74485;BMP280;62942;52.462;10.846;2023-04-08T04:07:12;101480;;;
74485;BMP280;62942;52.462;10.846;2023-04-08T04:08:22;101480;;;
74485;BMP280;62942;52.462;10.846;2023-04-08T04:09:22;101480;;;
74485;BMP280;62942;52.462;10.846;2023-04-08T04:10:22;101480;;;
74485;BMP280;62942;52.462;10.846;2023-04-08T04:11:32;101490;;;
74485;BMP280;62942;52.462;10.846;2023-04-08T04:12:32;101480;;;
74485;BMP280;62942;52.462;10.846;2023-04-08T04:13:42;101490;;;
74485;BMP280;62942;52.462;10.846;2023-04-08T04:14:42;101490;;;
74485;BMP280;62942;52.462;10.846;2023-04-08T04:15:42;101490;;;
74485;BMP280;62942;52.462;10.846;2023-04-08T04:16:52;101490;;;
74485;BMP280;62942;52.462;10.846;2023-04-08T04:17:52;101480;;;
74485;BMP280;62942;52.462;10.846;2023-04-08T04:18:52;101480;;;
74485;BMP280;62942;52.462;10.846;2023-04-08T04:20:02;101480;;;
74485;BMP280;62942;52.462;10.846;2023-04-08T04:21:12;101490;;;
74485;BMP280;62942;52.462;10.846;2023-04-08T04:22:12;101500;;;
74485;BMP280;62942;52.462;10.846;2023-04-08T04:23:12;101490;;;
74485;BMP280;62942;52.462;10.846;2023-04-08T04:24:22;101500;;;
74485;BMP280;62942;52.462;10.846;2023-04-08T04:25:22;101500;;;
74485;BMP280;62942;52.462;10.846;2023-04-08T04:26:32;101500;;;
74485;BMP280;62942;52.462;10.846;2023-04-08T04:27:32;101490;;;
74485;BMP280;62942;52.462;10.846;2023-04-08T04:28:42;101500;;;
74485;BMP280;62942;52.462;10.846;2023-04-08T04:29:42;101500;;;
74485;BMP280;62942;52.462;10.846;2023-04-08T04:30:52;101500;;;
74485;BMP280;62942;52.462;10.846;2023-04-08T04:31:52;101500;;;
74485;BMP280;62942;52.462;10.846;2023-04-08T04:33:02;101500;;;
74485;BMP280;62942;52.462;10.846;2023-04-08T04:34:02;101490;;;
74485;BMP280;62942;52.462;10.846;2023-04-08T04:35:02;101490;;;
74485;BMP280;62942;52.462;10.846;2023-04-08T04:36:12;101490;;;
74485;BMP280;62942;52.462;10.846;2023-04-08T04:37:22;101500;;;
74485;BMP280;62942;52.462;10.846;2023-04-08T04:38:32;101510;;;
74485;BMP280;62942;52.462;10.846;2023-04-08T04:39:42;101510;;;
74485;BMP280;62942;52.462;10.846;2023-04-08T04:40:52;101510;;;
74485;BMP280;62942;52.462;10.846;2023-04-08T04:41:52;101510;;;
74485;BMP280;62942;52.462;10.846;2023-04-08T04:42:52;101510;;;
74485;BMP280;62942;52.462;10.846;2023-04-08T04:44:02;101510;;;
74485;BMP280;62942;52.462;10.846;2023-04-08T04:45:12;101520;;;
74485;BMP280;62942;52.462;10.846;2023-04-08T04:46:12;101510;;;
74485;BMP280;62942;52.462;10.846;2023-04-08T04:47:22;101520;;;
74485;BMP280;62942;52.462;10.846;2023-04-08T04:48:32;101520;;;
74485;BMP280;62942;52.462;10.846;2023-04-08T04:49:32;101520;;;
74485;BMP280;62942;52.462;10.846;2023-04-08T04:50:42;101520;;;
74485;BMP280;62942;52.462;10.846;2023-04-08T04:51:42;101510;;;
74485;BMP280;62942;52.462;10.846;2023-04-08T04:52:42;101510;;;
74485;BMP280;62942;52.462;10.846;2023-04-08T04:53:52;101510;;;
74485;BMP280;62942;52.462;10.846;2023-04-08T04:55:02;101520;;;
74485;BMP280;62942;52.462;10.846;2023-04-08T04:56:02;101520;;;
74485;BMP280;62942;52.462;10.846;2023-04-08T04:57:11;101520;;;
74485;BMP280;62942;52.462;10.846;2023-04-08T04:58:12;101520;;;
74485;BMP280;62942;52.462;10.846;2023-04-08T04:59:12;101520;;;
74485;BMP280;62942;52.462;10.846;2023-04-08T05:00:21;101520;;;
74485;BMP280;62942;52.462;10.846;2023-04-08T05:01:22;101520;;;
74485;BMP280;62942;52.462;10.846;2023-04-08T05:02:32;101530;;;
74485;BMP280;62942;52.462;10.846;2023-04-08T05:03:32;101530;;;
74485;BMP280;62942;52.462;10.846;2023-04-08T05:04:41;101530;;;
74485;BMP280;62942;52.462;10.846;2023-04-08T05:05:42;101530;;;
74485;BMP280;62942;52.462;10.846;2023-04-08T05:06:51;101530;;;
74485;BMP280;62942;52.462;10.846;2023-04-08T05:08:01;101530;;;
74485;BMP280;62942;52.462;10.846;2023-04-08T05:09:02;101530;;;
74485;BMP280;62942;52.462;10.846;2023-04-08T05:10:02;101530;;;
74485;BMP280;62942;52.462;10.846;2023-04-08T05:11:12;101540;;;
74485;BMP280;62942;52.462;10.846;2023-04-08T05:12:12;101530;;;
74485;BMP280;62942;52.462;10.846;2023-04-08T05:13:21;101540;;;
74485;BMP280;62942;52.462;10.846;2023-04-08T05:14:22;101540;;;
74485;BMP280;62942;52.462;10.846;2023-04-08T05:15:22;101530;;;
74485;BMP280;62942;52.462;10.846;2023-04-08T05:16:22;101530;;;
74485;BMP280;62942;52.462;10.846;2023-04-08T05:17:32;101540;;;
74485;BMP280;62942;52.462;10.846;2023-04-08T05:18:41;101540;;;
74485;BMP280;62942;52.462;10.846;2023-04-08T05:19:41;101550;;;
74485;BMP280;62942;52.462;10.846;2023-04-08T05:20:42;101540;;;
74485;BMP280;62942;52.462;10.846;2023-04-08T05:21:42;101540;;;
74485;BMP280;62942;52.462;10.846;2023-04-08T05:22:52;101540;;;
74485;BMP280;62942;52.462;10.846;2023-04-08T05:23:52;101540;;;
74485;BMP280;62942;52.462;10.846;2023-04-08T05:25:02;101540;;;
74485;BMP280;62942;52.462;10.846;2023-04-08T05:26:02;101550;;;
74485;BMP280;62942;52.462;10.846;2023-04-08T05:27:02;101550;;;
74485;BMP280;62942;52.462;10.846;2023-04-08T05:28:11;101550;;;
74485;BMP280;62942;52.462;10.846;2023-04-08T05:29:22;101550;;;
74485;BMP280;62942;52.462;10.846;2023-04-08T05:30:32;101550;;;
74485;BMP280;62942;52.462;10.846;2023-04-08T05:31:42;101550;;;
74485;BMP280;62942;52.462;10.846;2023-04-08T05:32:42;101550;;;
74485;BMP280;62942;52.462;10.846;2023-04-08T05:33:51;101550;;;
74485;BMP280;62942;52.462;10.846;2023-04-08T05:34:51;101560;;;
74485;BMP280;62942;52.462;10.846;2023-04-08T05:35:51;101550;;;
74485;BMP280;62942;52.462;10.846;2023-04-08T05:37:01;101550;;;
74485;BMP280;62942;52.462;10.846;2023-04-08T05:38:01;101560;;;
74485;BMP280;62942;52.462;10.846;2023-04-08T05:39:11;101560;;;
74485;BMP280;62942;52.462;10.846;2023-04-08T05:40:12;101560;;;
74485;BMP280;62942;52.462;10.846;2023-04-08T05:41:21;101550;;;
74485;BMP280;62942;52.462;10.846;2023-04-08T05:42:21;101560;;;
74485;BMP280;62942;52.462;10.846;2023-04-08T05:43:21;101560;;;
74485;BMP280;62942;52.462;10.846;2023-04-08T05:44:31;101560;;;
74485;BMP280;62942;52.462;10.846;2023-04-08T05:45:31;101560;;;
74485;BMP280;62942;52.462;10.846;2023-04-08T05:46:41;101560;;;
74485;BMP280;62942;52.462;10.846;2023-04-08T05:47:52;101560;;;
74485;BMP280;62942;52.462;10.846;2023-04-08T05:49:01;101560;;;
74485;BMP280;62942;52.462;10.846;2023-04-08T05:50:01;101560;;;
74485;BMP280;62942;52.462;10.846;2023-04-08T05:51:12;101570;;;
74485;BMP280;62942;52.462;10.846;2023-04-08T05:52:21;101560;;;
74485;BMP280;62942;52.462;10.846;2023-04-08T05:53:31;101570;;;
74485;BMP280;62942;52.462;10.846;2023-04-08T05:54:31;101570;;;
74485;BMP280;62942;52.462;10.846;2023-04-08T05:55:41;101570;;;
74485;BMP280;62942;52.462;10.846;2023-04-08T05:56:41;101570;;;
74485;BMP280;62942;52.462;10.846;2023-04-08T05:57:51;101560;;;
74485;BMP280;62942;52.462;10.846;2023-04-08T05:59:01;101570;;;
74485;BMP280;62942;52.462;10.846;2023-04-08T06:00:02;101570;;;
74485;BMP280;62942;52.462;10.846;2023-04-08T06:01:12;101580;;;
74485;BMP280;62942;52.462;10.846;2023-04-08T06:02:11;101570;;;
74485;BMP280;62942;52.462;10.846;2023-04-08T06:03:21;101570;;;
74485;BMP280;62942;52.462;10.846;2023-04-08T06:04:31;101580;;;
74485;BMP280;62942;52.462;10.846;2023-04-08T06:05:41;101580;;;
74485;BMP280;62942;52.462;10.846;2023-04-08T06:06:51;101570;;;
74485;BMP280;62942;52.462;10.846;2023-04-08T06:07:51;101580;;;
74485;BMP280;62942;52.462;10.846;2023-04-08T06:08:51;101580;;;
74485;BMP280;62942;52.462;10.846;2023-04-08T06:10:01;101580;;;
74485;BMP280;62942;52.462;10.846;2023-04-08T06:11:11;101580;;;
74485;BMP280;62942;52.462;10.846;2023-04-08T06:12:11;101580;;;
74485;BMP280;62942;52.462;10.846;2023-04-08T06:13:21;101590;;;
74485;BMP280;62942;52.462;10.846;2023-04-08T06:14:21;101590;;;
74485;BMP280;62942;52.462;10.846;2023-04-08T06:15:31;101590;;;
74485;BMP280;62942;52.462;10.846;2023-04-08T06:16:41;101590;;;
74485;BMP280;62942;52.462;10.846;2023-04-08T06:17:41;101590;;;
74485;BMP280;62942;52.462;10.846;2023-04-08T06:18:51;101580;;;
74485;BMP280;62942;52.462;10.846;2023-04-08T06:20:02;101580;;;
74485;BMP280;62942;52.462;10.846;2023-04-08T06:21:11;101580;;;
74485;BMP280;62942;52.462;10.846;2023-04-08T06:22:11;101580;;;
74485;BMP280;62942;52.462;10.846;2023-04-08T06:23:21;101580;;;
74485;BMP280;62942;52.462;10.846;2023-04-08T06:24:21;101580;;;
74485;BMP280;62942;52.462;10.846;2023-04-08T06:25:21;101600;;;
74485;BMP280;62942;52.462;10.846;2023-04-08T06:26:31;101600;;;
74485;BMP280;62942;52.462;10.846;2023-04-08T06:27:41;101600;;;
74485;BMP280;62942;52.462;10.846;2023-04-08T06:28:41;101600;;;
74485;BMP280;62942;52.462;10.846;2023-04-08T06:29:51;101590;;;
74485;BMP280;62942;52.462;10.846;2023-04-08T06:30:51;101590;;;
74485;BMP280;62942;52.462;10.846;2023-04-08T06:32:01;101590;;;
74485;BMP280;62942;52.462;10.846;2023-04-08T06:33:01;101590;;;
74485;BMP280;62942;52.462;10.846;2023-04-08T06:34:11;101590;;;
74485;BMP280;62942;52.462;10.846;2023-04-08T06:35:21;101590;;;
74485;BMP280;62942;52.462;10.846;2023-04-08T06:36:21;101590;;;
74485;BMP280;62942;52.462;10.846;2023-04-08T06:37:21;101590;;;
74485;BMP280;62942;52.462;10.846;2023-04-08T06:38:21;101590;;;
74485;BMP280;62942;52.462;10.846;2023-04-08T06:39:31;101590;;;
74485;BMP280;62942;52.462;10.846;2023-04-08T06:40:41;101590;;;
74485;BMP280;62942;52.462;10.846;2023-04-08T06:41:41;101590;;;
74485;BMP280;62942;52.462;10.846;2023-04-08T06:42:51;101590;;;
74485;BMP280;62942;52.462;10.846;2023-04-08T06:43:51;101610;;;
74485;BMP280;62942;52.462;10.846;2023-04-08T06:45:02;101610;;;
74485;BMP280;62942;52.462;10.846;2023-04-08T06:46:01;101610;;;
74485;BMP280;62942;52.462;10.846;2023-04-08T06:47:11;101610;;;
74485;BMP280;62942;52.462;10.846;2023-04-08T06:48:21;101610;;;
74485;BMP280;62942;52.462;10.846;2023-04-08T06:49:21;101610;;;
74485;BMP280;62942;52.462;10.846;2023-04-08T06:50:31;101610;;;
74485;BMP280;62942;52.462;10.846;2023-04-08T06:51:31;101610;;;